Time;durP1;ratioP1;P1;durP2;ratioP2;P2;SDS_P1;SDS_P2;PMS_P1;PMS_P2;Temp;Humidity;BMP_temperature;BMP_pressure;BME280_temperature;BME280_humidity;BME280_pressure;Samples;Min_cycle;Max_cycle;Signal;HPM_P1;HPM_P2
2021/12/05 00:24:15;;;;;;;10.25;2.78;;;4.60;99.90;;;;;;5033124;28;20022;-52
2021/12/05 00:26:46;;;;;;;5.18;1.95;;;4.60;99.90;;;;;;5032946;28;20054;-54
2021/12/05 00:43:00;;;;;;;10.38;3.72;;;4.60;99.90;;;;;;5032845;28;20029;-52
2021/12/05 01:06:42;;;;;;;9.45;2.35;;;4.50;99.90;;;;;;5032388;28;20024;-52
2021/12/05 01:09:16;;;;;;;4.88;2.28;;;4.50;99.90;;;;;;5032049;28;20535;-54
2021/12/05 01:11:58;;;;;;;14.88;3.17;;;4.50;99.90;;;;;;5032369;28;20511;-53
2021/12/05 01:14:30;;;;;;;10.50;2.35;;;4.50;99.90;;;;;;5030886;28;20466;-51
2021/12/05 01:16:57;;;;;;;11.88;2.33;;;4.70;99.90;;;;;;5032135;28;20026;-54
2021/12/05 01:19:25;;;;;;;7.82;2.03;;;4.70;99.90;;;;;;5031826;28;20071;-50
2021/12/05 01:21:54;;;;;;;6.03;2.17;;;4.80;99.90;;;;;;5031946;28;20031;-54
2021/12/05 01:32:25;;;;;;;9.13;2.20;;;5.00;99.90;;;;;;5031986;28;20102;-51
2021/12/05 01:37:40;;;;;;;7.90;2.20;;;5.00;99.90;;;;;;5031606;28;20500;-54
2021/12/05 01:40:32;;;;;;;9.98;2.25;;;5.00;99.90;;;;;;5031420;28;20075;-53
2021/12/05 01:49:10;;;;;;;10.20;2.88;;;5.10;99.90;;;;;;5031923;28;20056;-51
2021/12/05 02:32:14;;;;;;;9.55;2.33;;;5.10;99.90;;;;;;5035426;28;20025;-51
2021/12/05 02:37:23;;;;;;;4.68;2.30;;;5.00;99.90;;;;;;5036257;28;20453;-51
2021/12/05 02:44:52;;;;;;;7.22;2.13;;;5.00;99.90;;;;;;5034588;28;20022;-52
2021/12/05 02:47:22;;;;;;;8.05;2.72;;;5.00;99.90;;;;;;5034971;28;20021;-50
2021/12/05 02:49:54;;;;;;;9.05;2.63;;;4.90;99.90;;;;;;5034602;28;20041;-51
2021/12/05 02:52:27;;;;;;;7.35;2.25;;;4.90;99.90;;;;;;5033658;28;20091;-50
2021/12/05 02:54:57;;;;;;;13.20;3.90;;;4.90;99.90;;;;;;5017714;28;20030;-54
2021/12/05 02:57:46;;;;;;;10.90;2.88;;;4.80;99.90;;;;;;5034950;28;20575;-54
2021/12/05 03:00:18;;;;;;;6.90;1.63;;;4.80;99.90;;;;;;5034316;28;20027;-52
2021/12/05 03:02:47;;;;;;;3.20;1.83;;;4.80;99.90;;;;;;5034559;28;20021;-51
2021/12/05 03:05:18;;;;;;;17.23;3.70;;;4.70;99.90;;;;;;5034687;28;20022;-51
2021/12/05 03:07:47;;;;;;;10.95;2.33;;;4.70;99.90;;;;;;5034627;28;20108;-54
2021/12/05 03:10:17;;;;;;;7.70;2.17;;;4.60;99.90;;;;;;5034071;28;20043;-57
2021/12/05 03:12:45;;;;;;;7.53;2.40;;;4.60;99.90;;;;;;5035223;28;20176;-51
2021/12/05 03:15:12;;;;;;;7.65;2.05;;;4.50;99.90;;;;;;5034473;28;20136;-53
2021/12/05 03:17:38;;;;;;;13.10;2.67;;;4.50;99.90;;;;;;5034355;28;20053;-52
2021/12/05 03:20:06;;;;;;;7.63;2.00;;;4.40;99.90;;;;;;5033435;28;20123;-50
2021/12/05 03:22:32;;;;;;;10.65;2.35;;;4.40;99.90;;;;;;5033983;28;20030;-52
2021/12/05 03:24:58;;;;;;;10.77;3.38;;;4.40;99.90;;;;;;5034103;28;20120;-51
2021/12/05 03:27:23;;;;;;;6.28;1.83;;;4.40;99.90;;;;;;5033971;28;20025;-52
2021/12/05 03:29:49;;;;;;;10.25;2.33;;;4.40;99.90;;;;;;5033620;28;20037;-51
2021/12/05 03:32:15;;;;;;;6.82;2.05;;;4.30;99.90;;;;;;5034071;28;20503;-54
2021/12/05 03:34:41;;;;;;;9.45;2.20;;;4.20;99.90;;;;;;5033978;28;20036;-50
2021/12/05 03:37:08;;;;;;;8.05;2.30;;;4.20;99.90;;;;;;5049089;28;20029;-50
2021/12/05 03:39:34;;;;;;;14.45;2.20;;;4.20;99.90;;;;;;5033520;28;20049;-50
2021/12/05 03:42:00;;;;;;;7.03;2.85;;;4.20;99.90;;;;;;5033812;28;20036;-50
2021/12/05 03:44:28;;;;;;;9.90;2.53;;;4.20;99.90;;;;;;5033236;28;20104;-51
2021/12/05 03:46:56;;;;;;;8.93;3.42;;;4.10;99.90;;;;;;5033751;28;20033;-54
2021/12/05 03:49:23;;;;;;;15.88;2.70;;;4.10;99.90;;;;;;5033433;28;20021;-52
2021/12/05 03:51:56;;;;;;;9.70;2.55;;;4.10;99.90;;;;;;5032217;28;20029;-51
2021/12/05 03:54:23;;;;;;;14.07;5.75;;;4.10;99.90;;;;;;5033684;28;20510;-50
2021/12/05 03:56:51;;;;;;;6.75;3.28;;;4.10;99.90;;;;;;5033599;28;20091;-54
2021/12/05 03:59:18;;;;;;;9.52;2.75;;;4.10;99.90;;;;;;5033199;28;20558;-53
2021/12/05 04:01:44;;;;;;;7.65;2.40;;;4.10;99.90;;;;;;5033209;28;20021;-50
2021/12/05 04:04:11;;;;;;;8.60;3.63;;;4.20;99.90;;;;;;5033480;28;20498;-50
2021/12/05 04:06:37;;;;;;;6.25;2.25;;;4.20;99.90;;;;;;5032000;28;20159;-51
2021/12/05 04:09:07;;;;;;;9.73;2.80;;;4.20;99.90;;;;;;5033328;28;20056;-55
2021/12/05 04:11:36;;;;;;;4.55;2.28;;;4.20;99.90;;;;;;5033447;28;20036;-54
2021/12/05 04:14:04;;;;;;;9.68;3.17;;;4.30;99.90;;;;;;5033532;28;20025;-56
2021/12/05 04:16:29;;;;;;;9.85;4.10;;;4.40;99.90;;;;;;5033436;28;20486;-50
2021/12/05 04:18:56;;;;;;;14.10;3.90;;;4.40;99.90;;;;;;5031891;28;20116;-51
2021/12/05 04:21:22;;;;;;;6.28;1.88;;;4.50;99.90;;;;;;5032666;28;20116;-50
2021/12/05 04:23:48;;;;;;;7.60;2.15;;;4.60;99.90;;;;;;5032991;28;20093;-51
2021/12/05 04:26:15;;;;;;;10.52;3.35;;;4.60;99.90;;;;;;5032958;28;20060;-51
2021/12/05 04:28:41;;;;;;;6.47;3.75;;;4.60;99.90;;;;;;5031397;28;20028;-48
2021/12/05 04:31:08;;;;;;;7.57;2.88;;;4.60;99.90;;;;;;5032294;28;20021;-52
2021/12/05 04:33:35;;;;;;;7.07;2.28;;;4.60;99.90;;;;;;5032308;28;20041;-54
2021/12/05 04:36:01;;;;;;;14.40;3.65;;;4.60;99.90;;;;;;5032768;28;20105;-50
2021/12/05 04:38:27;;;;;;;6.55;2.50;;;4.60;99.90;;;;;;5048241;28;20108;-48
2021/12/05 04:40:53;;;;;;;8.98;2.75;;;4.60;99.90;;;;;;5032218;28;20079;-52
2021/12/05 04:43:18;;;;;;;5.85;2.25;;;4.60;99.90;;;;;;5031997;28;20394;-51
2021/12/05 04:45:44;;;;;;;7.55;2.70;;;4.60;99.90;;;;;;5031167;28;20090;-51
2021/12/05 04:48:12;;;;;;;10.25;2.50;;;4.60;99.90;;;;;;5032438;28;20025;-49
2021/12/05 04:50:39;;;;;;;9.27;2.00;;;4.60;99.90;;;;;;5030693;28;20021;-51
2021/12/05 04:53:06;;;;;;;8.70;3.13;;;4.60;99.90;;;;;;5032416;28;20120;-49
2021/12/05 04:55:33;;;;;;;9.43;2.30;;;4.60;99.90;;;;;;5032306;28;20036;-51
2021/12/05 04:57:59;;;;;;;7.28;2.05;;;4.60;99.90;;;;;;5032354;28;20033;-53
2021/12/05 05:00:41;;;;;;;8.55;2.45;;;4.60;99.90;;;;;;5030609;28;20033;-49
2021/12/05 05:03:08;;;;;;;7.28;2.10;;;4.70;99.90;;;;;;5047490;28;20123;-50
2021/12/05 05:05:39;;;;;;;6.32;2.17;;;4.80;99.90;;;;;;5032138;28;20018;-51
2021/12/05 05:08:05;;;;;;;6.15;1.95;;;4.70;99.90;;;;;;5032150;28;20028;-48
2021/12/05 05:10:32;;;;;;;5.72;2.47;;;4.70;99.90;;;;;;5030293;28;20034;-49
2021/12/05 05:12:57;;;;;;;10.38;2.30;;;4.70;99.90;;;;;;5032176;28;20071;-50
2021/12/05 05:15:27;;;;;;;7.13;1.88;;;4.70;99.90;;;;;;5032000;28;20025;-53
2021/12/05 05:17:54;;;;;;;9.38;2.88;;;4.70;99.90;;;;;;5030639;28;20021;-51
2021/12/05 05:23:38;;;;;;;4.88;2.15;;;4.80;99.90;;;;;;5031822;28;20040;-50
2021/12/05 05:39:05;;;;;;;6.68;1.65;;;4.70;99.90;;;;;;5031866;28;20511;-52
2021/12/05 05:44:54;;;;;;;7.28;1.77;;;4.70;99.90;;;;;;5030912;28;20099;-50
2021/12/05 05:47:38;;;;;;;7.70;2.53;;;4.70;99.90;;;;;;5031663;28;20021;-55
2021/12/05 05:50:05;;;;;;;8.68;1.95;;;4.60;99.90;;;;;;5031253;28;20028;-52
2021/12/05 05:52:33;;;;;;;5.05;2.05;;;4.60;99.90;;;;;;5030461;28;20459;-49
2021/12/05 05:55:00;;;;;;;3.25;1.77;;;4.70;99.90;;;;;;5031555;28;20036;-52
2021/12/05 05:57:48;;;;;;;3.75;1.50;;;4.70;99.90;;;;;;5031459;28;20049;-50
2021/12/05 06:00:27;;;;;;;6.07;1.70;;;4.60;99.90;;;;;;5031270;28;20079;-49
2021/12/05 06:05:57;;;;;;;3.72;2.05;;;4.70;99.90;;;;;;4989529;28;20547;-53
2021/12/05 06:08:26;;;;;;;7.70;1.65;;;4.70;99.90;;;;;;5023772;28;20476;-51
2021/12/05 06:10:53;;;;;;;3.78;1.73;;;4.60;99.90;;;;;;5030986;28;20483;-51
2021/12/05 06:13:19;;;;;;;6.63;2.08;;;4.60;99.90;;;;;;5031536;28;20060;-51
2021/12/05 06:15:47;;;;;;;9.77;2.03;;;4.70;99.90;;;;;;5031370;28;20151;-52
2021/12/05 06:18:13;;;;;;;5.47;2.13;;;4.70;99.90;;;;;;5031364;28;20025;-51
2021/12/05 06:20:40;;;;;;;10.20;3.72;;;4.70;99.90;;;;;;5030985;28;20491;-50
2021/12/05 06:23:06;;;;;;;6.55;2.25;;;4.70;99.90;;;;;;5025991;22;20042;-47
2021/12/05 06:25:35;;;;;;;4.22;2.13;;;4.80;99.90;;;;;;4992136;28;20033;-43
2021/12/05 06:28:07;;;;;;;7.85;2.20;;;4.70;99.90;;;;;;4991176;28;20109;-43
2021/12/05 06:30:45;;;;;;;7.50;2.10;;;4.60;99.90;;;;;;4991923;28;20030;-43
2021/12/05 06:41:24;;;;;;;5.05;2.10;;;4.40;99.90;;;;;;4991811;28;20490;-45
2021/12/05 06:46:30;;;;;;;6.18;2.50;;;4.40;99.90;;;;;;4991708;28;20377;-44
2021/12/05 06:48:56;;;;;;;8.95;2.78;;;4.40;99.90;;;;;;4991635;28;20053;-46
2021/12/05 06:51:25;;;;;;;10.25;2.78;;;4.30;99.90;;;;;;4989723;28;20026;-41
2021/12/05 06:53:51;;;;;;;4.00;2.33;;;4.20;99.90;;;;;;4991611;28;20030;-49
2021/12/05 06:56:17;;;;;;;7.10;2.72;;;4.30;99.90;;;;;;4993876;28;20081;-43
2021/12/05 06:58:43;;;;;;;6.47;2.47;;;4.30;99.90;;;;;;4995300;28;20023;-44
2021/12/05 07:01:11;;;;;;;3.75;2.55;;;4.30;99.90;;;;;;4995056;28;20034;-41
2021/12/05 07:03:40;;;;;;;6.57;2.30;;;4.30;99.90;;;;;;4994977;28;20048;-44
2021/12/05 07:06:10;;;;;;;4.68;2.72;;;4.40;99.90;;;;;;4995187;28;20102;-46
2021/12/05 07:08:38;;;;;;;10.32;2.38;;;4.40;99.90;;;;;;4995148;28;20022;-44
2021/12/05 07:11:26;;;;;;;5.82;2.63;;;4.30;99.90;;;;;;4994790;28;20026;-46
2021/12/05 07:16:42;;;;;;;5.78;2.42;;;4.20;99.90;;;;;;4995061;28;20019;-44
2021/12/05 07:19:32;;;;;;;8.00;3.35;;;4.30;99.90;;;;;;4994921;28;20022;-42
2021/12/05 07:22:01;;;;;;;4.70;2.60;;;4.30;99.90;;;;;;4994632;28;20049;-46
2021/12/05 07:24:39;;;;;;;4.30;2.42;;;4.30;99.90;;;;;;4994900;28;20544;-45
2021/12/05 07:40:45;;;;;;;4.80;1.92;;;4.50;99.90;;;;;;4994741;28;20113;-42
2021/12/05 07:43:12;;;;;;;5.15;2.35;;;4.50;99.90;;;;;;4994579;28;20061;-43
2021/12/05 07:45:45;;;;;;;3.17;2.40;;;4.50;99.90;;;;;;4994809;28;20495;-43
2021/12/05 07:48:16;;;;;;;5.22;2.40;;;4.50;99.90;;;;;;4994592;28;20026;-43
2021/12/05 07:51:15;;;;;;;8.55;3.13;;;4.40;99.90;;;;;;4994646;28;20046;-45
2021/12/05 07:57:01;;;;;;;4.07;2.97;;;4.40;99.90;;;;;;4994706;28;20030;-43
2021/12/05 08:15:28;;;;;;;9.02;2.63;;;4.80;99.90;;;;;;4994435;28;20550;-43
2021/12/05 08:17:57;;;;;;;1.60;1.50;;;5.00;99.90;;;;;;4993887;28;20407;-44
2021/12/05 08:20:27;;;;;;;5.20;2.00;;;5.00;99.90;;;;;;4993857;28;20467;-46
2021/12/05 08:22:53;;;;;;;6.85;2.22;;;5.00;99.90;;;;;;4993858;28;20031;-49
2021/12/05 08:25:22;;;;;;;3.55;2.08;;;5.00;99.90;;;;;;4993798;28;20117;-51
2021/12/05 08:27:52;;;;;;;2.13;1.88;;;5.00;99.90;;;;;;4993515;28;20034;-46
2021/12/05 08:30:39;;;;;;;5.78;2.30;;;5.10;99.90;;;;;;4993355;28;20528;-42
2021/12/05 08:43:28;;;;;;;9.57;2.90;;;5.20;99.90;;;;;;4993548;28;20030;-43
2021/12/05 09:08:44;;;;;;;7.18;2.90;;;5.20;99.90;;;;;;4993196;28;20113;-44
2021/12/05 09:24:34;;;;;;;6.72;2.67;;;6.10;99.90;;;;;;4992905;28;20027;-49
2021/12/05 09:30:14;;;;;;;3.22;1.73;;;7.70;99.90;;;;;;4992537;28;20026;-44
2021/12/05 09:52:16;;;;;;;4.38;1.52;;;8.30;99.90;;;;;;4992525;28;20034;-49
2021/12/05 10:08:38;;;;;;;5.22;1.85;;;6.90;99.90;;;;;;4991617;28;20052;-46
2021/12/05 10:11:25;;;;;;;4.00;1.40;;;6.60;99.90;;;;;;4991995;28;20053;-47
2021/12/05 10:14:01;;;;;;;36.83;20.35;;;6.30;99.90;;;;;;4992322;28;20467;-45
2021/12/05 10:16:56;;;;;;;34.47;16.73;;;6.20;99.90;;;;;;4993156;28;20096;-45
2021/12/05 10:37:17;;;;;;;2.58;1.25;;;6.70;99.90;;;;;;4996315;28;20026;-46
2021/12/05 10:39:45;;;;;;;164.98;28.83;;;6.80;99.90;;;;;;4995525;28;20025;-47
2021/12/05 10:42:35;;;;;;;23.65;6.90;;;6.80;99.90;;;;;;4995597;28;20032;-46
2021/12/05 10:45:01;;;;;;;8.15;2.15;;;6.80;99.90;;;;;;4995565;28;20088;-47
2021/12/05 10:47:42;;;;;;;5.90;1.50;;;6.70;99.90;;;;;;4995417;28;20026;-44
2021/12/05 10:50:38;;;;;;;3.25;1.10;;;6.70;99.90;;;;;;4995418;28;20042;-45
2021/12/05 10:53:22;;;;;;;5.00;2.25;;;6.60;99.90;;;;;;4995819;28;20030;-43
2021/12/05 10:56:05;;;;;;;2.80;0.93;;;6.60;99.90;;;;;;4994932;28;20054;-46
2021/12/05 10:58:34;;;;;;;1.63;1.02;;;6.60;99.90;;;;;;4992114;28;20022;-45
2021/12/05 11:01:07;;;;;;;4.22;1.80;;;6.70;99.90;;;;;;4995176;28;20029;-45
2021/12/05 11:03:33;;;;;;;4.18;1.30;;;6.90;99.90;;;;;;4994700;28;20033;-48
2021/12/05 11:05:59;;;;;;;2.53;1.15;;;7.00;99.90;;;;;;4995375;28;20038;-45
2021/12/05 11:08:31;;;;;;;4.07;1.50;;;6.90;99.90;;;;;;4995474;28;20018;-46
2021/12/05 11:11:06;;;;;;;2.70;1.15;;;6.90;99.90;;;;;;4994647;28;20241;-47
2021/12/05 11:13:32;;;;;;;4.03;1.53;;;6.70;99.90;;;;;;4994434;28;20400;-47
2021/12/05 11:15:57;;;;;;;6.15;1.67;;;6.70;99.90;;;;;;4989973;28;20286;-51
2021/12/05 11:18:43;;;;;;;3.03;1.30;;;6.70;99.90;;;;;;4989263;28;20045;-45
2021/12/05 11:21:34;;;;;;;2.45;1.35;;;6.70;99.90;;;;;;4992642;28;20026;-47
2021/12/05 11:24:16;;;;;;;3.95;2.35;;;6.70;99.90;;;;;;5008394;28;20451;-48
2021/12/05 11:26:44;;;;;;;4.18;1.90;;;6.80;99.90;;;;;;4995325;28;20064;-44
2021/12/05 11:29:10;;;;;;;5.20;1.38;;;6.90;99.90;;;;;;4994603;28;20042;-47
2021/12/05 11:31:37;;;;;;;3.95;1.38;;;7.00;99.90;;;;;;4994610;28;20022;-45
2021/12/05 11:34:03;;;;;;;4.65;1.67;;;7.10;99.90;;;;;;4994508;28;20022;-49
2021/12/05 11:36:33;;;;;;;2.72;1.30;;;7.10;99.90;;;;;;4994356;28;20037;-44
2021/12/05 11:38:58;;;;;;;3.83;1.10;;;7.10;99.90;;;;;;4997426;28;20050;-48
2021/12/05 11:41:24;;;;;;;2.85;1.13;;;7.10;99.90;;;;;;4992232;28;20064;-46
2021/12/05 11:43:57;;;;;;;7.13;1.33;;;7.00;99.90;;;;;;4994279;28;20030;-46
2021/12/05 11:46:33;;;;;;;3.85;1.20;;;6.90;99.90;;;;;;4994973;28;20023;-46
2021/12/05 11:49:04;;;;;;;2.28;1.17;;;6.90;99.90;;;;;;4994408;28;20109;-46
2021/12/05 11:51:34;;;;;;;2.67;1.65;;;7.00;99.90;;;;;;4994206;28;20018;-51
2021/12/05 11:54:09;;;;;;;3.63;1.95;;;7.00;99.90;;;;;;4993965;28;20039;-47
2021/12/05 11:56:35;;;;;;;6.27;1.63;;;6.90;99.90;;;;;;4994294;28;20441;-47
2021/12/05 11:59:26;;;;;;;6.18;1.83;;;6.80;99.90;;;;;;4994121;28;20273;-43
2021/12/05 12:02:04;;;;;;;4.32;1.73;;;6.80;99.90;;;;;;4990848;28;20412;-50
2021/12/05 12:04:44;;;;;;;6.82;2.45;;;6.80;99.90;;;;;;4993871;28;20029;-48
2021/12/05 12:07:21;;;;;;;3.70;2.58;;;6.80;99.90;;;;;;4992132;28;20022;-47
2021/12/05 12:09:49;;;;;;;4.60;3.17;;;6.70;99.90;;;;;;4993401;28;20026;-48
2021/12/05 12:12:16;;;;;;;2.88;2.05;;;6.70;99.90;;;;;;4993431;28;20027;-52
2021/12/05 12:14:42;;;;;;;2.63;1.65;;;6.60;99.90;;;;;;4993690;28;20444;-51
2021/12/05 12:17:13;;;;;;;8.50;2.10;;;6.50;99.90;;;;;;4993714;28;20160;-50
2021/12/05 12:19:39;;;;;;;3.58;1.80;;;6.50;99.90;;;;;;4993604;28;20037;-53
2021/12/05 12:22:07;;;;;;;2.55;1.70;;;6.50;99.90;;;;;;5019612;23;20034;-44
2021/12/05 12:24:33;;;;;;;3.88;1.45;;;6.50;99.90;;;;;;5013281;28;20286;-47
2021/12/05 12:26:59;;;;;;;2.35;1.85;;;6.60;99.90;;;;;;5012042;28;20029;-45
2021/12/05 12:29:26;;;;;;;2.53;1.08;;;6.70;99.90;;;;;;5015436;28;20096;-45
2021/12/05 12:31:53;;;;;;;1.75;1.40;;;6.90;99.90;;;;;;5003340;28;20018;-46
2021/12/05 12:34:21;;;;;;;1.88;1.15;;;7.00;99.90;;;;;;5015754;28;20025;-49
2021/12/05 12:36:52;;;;;;;5.00;2.63;;;7.10;99.90;;;;;;5022166;28;20040;-49
2021/12/05 12:39:20;;;;;;;1.20;1.20;;;7.20;99.90;;;;;;5016279;28;20041;-43
2021/12/05 12:42:04;;;;;;;1.13;1.00;;;7.10;99.90;;;;;;5025587;28;20414;-48
2021/12/05 12:44:30;;;;;;;2.42;1.40;;;7.10;99.90;;;;;;5023358;28;20029;-45
2021/12/05 12:46:59;;;;;;;5.97;1.40;;;6.90;99.90;;;;;;5023626;28;20028;-47
2021/12/05 12:49:35;;;;;;;2.42;1.48;;;6.90;99.90;;;;;;5016154;28;20490;-52
2021/12/05 12:52:08;;;;;;;4.95;1.55;;;6.90;99.90;;;;;;5019696;28;20452;-46
2021/12/05 12:54:42;;;;;;;2.75;1.38;;;6.80;99.90;;;;;;5025173;28;20033;-52
2021/12/05 12:57:20;;;;;;;1.60;1.17;;;6.80;99.90;;;;;;5033087;28;20033;-43
2021/12/05 12:59:57;;;;;;;1.33;1.13;;;6.80;99.90;;;;;;5032355;28;20026;-44
2021/12/05 13:02:56;;;;;;;3.70;1.02;;;6.90;99.90;;;;;;5032076;28;20438;-48
2021/12/05 13:11:12;;;;;;;;;;;6.80;99.90;;;;;;5032987;28;20506;-49
2021/12/05 13:13:40;;;;;;;90.75;48.33;;;6.70;99.90;;;;;;5030760;28;20534;-47
2021/12/05 13:16:19;;;;;;;10.15;4.05;;;6.70;99.90;;;;;;5032156;28;20043;-49
2021/12/05 13:18:49;;;;;;;1.33;1.10;;;6.70;99.90;;;;;;5031892;28;20033;-49
2021/12/05 13:21:31;;;;;;;2.20;1.02;;;6.80;99.90;;;;;;5030525;28;20376;-46
2021/12/05 13:23:57;;;;;;;1.08;0.82;;;6.70;99.90;;;;;;5031310;28;20080;-51
2021/12/05 13:26:42;;;;;;;2.83;1.10;;;6.70;99.90;;;;;;5031642;28;20124;-46
2021/12/05 13:29:25;;;;;;;5.15;1.35;;;6.70;99.90;;;;;;5031509;28;20021;-50
2021/12/05 13:32:12;;;;;;;1.70;1.23;;;6.70;99.90;;;;;;5031564;28;20025;-47
2021/12/05 13:34:41;;;;;;;3.08;1.00;;;6.70;99.90;;;;;;5031638;28;20018;-45
2021/12/05 13:37:08;;;;;;;1.10;1.00;;;6.70;99.90;;;;;;5030673;28;20526;-49
2021/12/05 13:39:33;;;;;;;2.65;1.30;;;6.80;99.90;;;;;;5031480;28;20029;-48
2021/12/05 13:42:11;;;;;;;2.20;1.55;;;6.80;99.90;;;;;;5030312;28;20030;-49
2021/12/05 13:45:08;;;;;;;1.95;1.15;;;6.90;99.90;;;;;;5031697;28;20479;-48
2021/12/05 13:47:43;;;;;;;1.27;1.02;;;6.90;99.90;;;;;;5031604;28;20032;-48
2021/12/05 13:50:18;;;;;;;1.73;1.00;;;6.90;99.90;;;;;;5031378;28;20032;-49
2021/12/05 13:52:47;;;;;;;3.15;1.70;;;6.90;99.90;;;;;;5031784;28;20491;-51
2021/12/05 13:55:39;;;;;;;3.05;1.27;;;7.00;99.90;;;;;;5031591;28;20033;-47
2021/12/05 13:58:36;;;;;;;2.95;1.42;;;7.10;99.90;;;;;;5031523;28;20025;-45
2021/12/05 14:01:15;;;;;;;1.65;0.93;;;7.10;99.90;;;;;;5031040;28;20096;-48
2021/12/05 14:04:10;;;;;;;1.75;1.13;;;6.90;99.90;;;;;;5020991;28;20522;-51
2021/12/05 14:06:53;;;;;;;1.52;1.00;;;6.80;99.90;;;;;;5024580;28;20033;-51
2021/12/05 14:09:32;;;;;;;1.10;1.00;;;6.70;99.90;;;;;;5015604;28;20018;-51
2021/12/05 14:12:29;;;;;;;1.15;1.15;;;6.70;99.90;;;;;;5017508;28;20465;-50
2021/12/05 14:14:59;;;;;;;2.20;1.45;;;6.60;99.90;;;;;;5017969;28;20028;-49
2021/12/05 14:17:48;;;;;;;1.55;1.30;;;6.60;99.90;;;;;;5021399;28;20538;-45
2021/12/05 14:20:20;;;;;;;1.92;1.33;;;6.50;99.90;;;;;;5014220;28;20030;-49
2021/12/05 14:22:49;;;;;;;2.85;1.27;;;6.40;99.90;;;;;;5017226;28;20447;-49
2021/12/05 14:25:18;;;;;;;3.03;1.50;;;6.30;99.90;;;;;;5016484;28;20018;-47
2021/12/05 14:27:50;;;;;;;3.13;1.70;;;6.30;99.90;;;;;;5017884;28;20026;-48
2021/12/05 14:30:21;;;;;;;2.28;1.73;;;6.20;99.90;;;;;;5017415;28;20056;-47
2021/12/05 14:32:49;;;;;;;3.92;2.25;;;6.20;99.90;;;;;;5017678;28;20048;-49
2021/12/05 14:35:22;;;;;;;5.65;3.15;;;6.20;99.90;;;;;;5017652;28;20064;-48
2021/12/05 14:37:50;;;;;;;8.90;4.38;;;6.10;99.90;;;;;;5024219;28;20403;-48
2021/12/05 14:40:30;;;;;;;12.98;4.63;;;6.00;99.90;;;;;;5036460;28;20506;-47
2021/12/05 14:42:59;;;;;;;5.50;2.65;;;6.10;99.90;;;;;;5037205;28;20383;-48
2021/12/05 14:45:28;;;;;;;10.60;4.20;;;6.10;99.90;;;;;;5037634;28;20033;-48
2021/12/05 14:47:57;;;;;;;3.55;2.00;;;6.20;99.90;;;;;;5037482;28;20041;-48
2021/12/05 14:50:30;;;;;;;2.65;1.75;;;6.20;99.90;;;;;;5035940;28;20112;-47
2021/12/05 14:52:58;;;;;;;2.10;2.00;;;6.30;99.90;;;;;;5037468;28;20030;-49
2021/12/05 14:55:25;;;;;;;3.85;1.73;;;6.40;99.90;;;;;;5036945;28;20491;-49
2021/12/05 14:57:57;;;;;;;5.22;3.30;;;6.40;99.90;;;;;;5037382;28;20028;-51
2021/12/05 15:00:27;;;;;;;4.43;3.05;;;6.30;99.90;;;;;;5037262;28;20030;-52
2021/12/05 15:03:06;;;;;;;6.25;3.25;;;6.30;99.90;;;;;;5037437;28;20021;-49
2021/12/05 15:05:34;;;;;;;7.35;3.40;;;6.20;99.90;;;;;;5037623;28;20075;-49
2021/12/05 15:08:07;;;;;;;7.13;3.13;;;6.30;99.90;;;;;;5036464;28;20026;-50
2021/12/05 15:10:33;;;;;;;5.82;2.47;;;6.30;99.90;;;;;;5037242;28;20063;-48
2021/12/05 15:12:59;;;;;;;3.20;1.98;;;6.40;99.90;;;;;;5036052;28;20552;-50
2021/12/05 15:15:25;;;;;;;3.67;2.15;;;6.30;99.90;;;;;;5036681;28;20041;-46
2021/12/05 15:17:53;;;;;;;6.57;3.33;;;6.30;99.90;;;;;;5033947;28;20025;-47
2021/12/05 15:20:21;;;;;;;4.95;3.30;;;6.20;99.90;;;;;;5034086;28;20037;-47
2021/12/05 15:23:00;;;;;;;6.38;3.63;;;6.20;99.90;;;;;;5034112;28;20029;-51
2021/12/05 15:25:27;;;;;;;3.67;2.22;;;6.10;99.90;;;;;;5034080;28;20021;-49
2021/12/05 15:27:54;;;;;;;4.47;2.33;;;6.20;99.90;;;;;;5034150;28;20018;-52
2021/12/05 15:30:31;;;;;;;7.35;3.80;;;6.10;99.90;;;;;;5033844;28;20044;-49
2021/12/05 15:33:03;;;;;;;3.80;2.63;;;6.10;99.90;;;;;;5025517;28;20555;-51
2021/12/05 15:35:30;;;;;;;3.83;2.60;;;6.10;99.90;;;;;;5030610;28;20072;-49
2021/12/05 15:38:04;;;;;;;4.22;2.10;;;6.10;99.90;;;;;;5032714;28;20036;-51
2021/12/05 15:40:33;;;;;;;5.78;3.05;;;6.10;99.90;;;;;;5032144;28;20057;-51
2021/12/05 15:43:03;;;;;;;8.30;4.32;;;6.10;99.90;;;;;;5019483;28;20053;-49
2021/12/05 15:45:29;;;;;;;7.57;4.35;;;6.10;99.90;;;;;;5024544;28;20029;-44
2021/12/05 15:47:54;;;;;;;6.97;3.90;;;6.10;99.90;;;;;;5033396;28;20026;-49
2021/12/05 15:50:25;;;;;;;10.18;4.93;;;6.10;99.90;;;;;;5022434;28;20336;-49
2021/12/05 15:52:54;;;;;;;143.07;87.93;;;6.10;99.90;;;;;;5012631;28;20029;-47
2021/12/05 15:55:20;;;;;;;23.83;11.93;;;6.10;99.90;;;;;;5023386;28;20026;-46
2021/12/05 15:57:49;;;;;;;12.38;6.63;;;6.20;99.90;;;;;;5029020;28;20022;-59
2021/12/05 16:00:30;;;;;;;6.72;3.70;;;6.20;99.90;;;;;;5016529;28;20083;-50
2021/12/05 16:03:00;;;;;;;4.55;3.13;;;6.10;99.90;;;;;;5013490;28;20026;-51
2021/12/05 16:05:27;;;;;;;4.80;2.95;;;6.10;99.90;;;;;;5013154;28;20026;-49
2021/12/05 16:08:01;;;;;;;7.47;3.03;;;6.10;99.90;;;;;;5012191;28;20026;-45
2021/12/05 16:10:26;;;;;;;4.43;3.33;;;6.10;99.90;;;;;;5026001;28;20040;-47
2021/12/05 16:12:53;;;;;;;5.80;2.10;;;6.10;99.90;;;;;;5024262;28;20021;-48
2021/12/05 16:15:24;;;;;;;2.10;1.90;;;6.10;99.90;;;;;;5013360;28;20030;-46
2021/12/05 16:18:00;;;;;;;2.58;2.13;;;6.10;99.90;;;;;;5013168;28;20030;-46
2021/12/05 16:20:48;;;;;;;2.28;2.08;;;6.20;99.90;;;;;;5013398;28;20645;-45
2021/12/05 16:23:19;;;;;;;5.93;2.25;;;6.20;99.90;;;;;;5012880;28;20065;-46
2021/12/05 16:26:08;;;;;;;3.10;2.40;;;6.20;99.90;;;;;;5012880;28;20125;-49
2021/12/05 16:28:46;;;;;;;4.18;2.03;;;6.20;99.90;;;;;;5011930;28;20018;-48
2021/12/05 16:31:14;;;;;;;4.68;2.00;;;6.10;99.90;;;;;;5012530;28;20026;-46
2021/12/05 16:33:45;;;;;;;4.72;2.60;;;6.10;99.90;;;;;;5012805;28;20030;-49
2021/12/05 16:36:12;;;;;;;8.88;2.88;;;6.10;99.90;;;;;;5012471;28;20026;-46
2021/12/05 16:38:41;;;;;;;5.93;3.42;;;6.10;99.90;;;;;;5013043;28;20064;-51
2021/12/05 16:41:15;;;;;;;5.50;3.63;;;6.10;99.90;;;;;;5012724;28;20017;-46
2021/12/05 16:43:49;;;;;;;3.60;3.03;;;6.10;99.90;;;;;;5011459;28;20396;-45
2021/12/05 16:46:37;;;;;;;12.95;3.53;;;6.10;99.90;;;;;;5012493;28;20105;-49
2021/12/05 16:49:08;;;;;;;6.85;3.33;;;6.10;99.90;;;;;;5012401;28;20492;-48
2021/12/05 16:51:36;;;;;;;6.00;4.35;;;6.10;99.90;;;;;;5012794;28;20064;-49
2021/12/05 16:54:28;;;;;;;6.32;3.47;;;6.10;99.90;;;;;;5012399;28;20026;-49
2021/12/05 16:57:06;;;;;;;8.60;3.85;;;6.10;99.90;;;;;;5012249;28;20129;-46
2021/12/05 16:59:37;;;;;;;5.80;3.80;;;6.10;99.90;;;;;;5012509;28;20084;-46
2021/12/05 17:02:17;;;;;;;7.47;5.47;;;6.00;99.90;;;;;;5012324;28;20065;-48
2021/12/05 17:05:06;;;;;;;6.68;4.30;;;6.00;99.90;;;;;;5012358;28;20029;-48
2021/12/05 17:07:55;;;;;;;8.88;5.88;;;6.00;99.90;;;;;;5006707;28;20025;-45
2021/12/05 17:10:21;;;;;;;9.15;6.30;;;6.00;99.90;;;;;;5012134;28;20026;-48
2021/12/05 17:12:52;;;;;;;16.23;6.18;;;6.00;99.90;;;;;;5012509;28;20025;-45
2021/12/05 17:15:20;;;;;;;9.48;6.32;;;6.00;99.90;;;;;;5017245;28;20556;-45
2021/12/05 17:17:47;;;;;;;10.45;5.93;;;6.00;99.90;;;;;;5023056;28;20399;-47
2021/12/05 17:20:30;;;;;;;14.38;9.13;;;6.00;99.90;;;;;;5015231;28;20487;-47
2021/12/05 17:23:10;;;;;;;5.72;4.70;;;6.00;99.90;;;;;;5011832;28;20029;-48
2021/12/05 17:25:38;;;;;;;7.22;4.80;;;6.00;99.90;;;;;;5012258;28;20042;-47
2021/12/05 17:28:09;;;;;;;8.25;4.43;;;6.00;99.90;;;;;;5012040;28;20025;-49
2021/12/05 17:30:35;;;;;;;5.97;4.32;;;5.90;99.90;;;;;;5010470;28;20115;-48
2021/12/05 17:33:03;;;;;;;7.95;4.65;;;5.90;99.90;;;;;;5011799;28;20065;-50
2021/12/05 17:35:30;;;;;;;7.80;5.57;;;5.80;99.90;;;;;;5011970;28;20569;-49
2021/12/05 17:37:56;;;;;;;7.15;5.25;;;5.80;99.90;;;;;;5011886;28;20029;-50
2021/12/05 17:40:22;;;;;;;9.48;5.90;;;5.80;99.90;;;;;;5011308;28;20046;-47
2021/12/05 17:42:48;;;;;;;5.90;5.30;;;5.80;99.90;;;;;;5011933;28;20069;-51
2021/12/05 17:45:15;;;;;;;11.90;6.00;;;5.70;99.90;;;;;;5012103;28;20539;-49
2021/12/05 17:47:41;;;;;;;12.18;6.93;;;5.70;99.90;;;;;;5016004;28;20434;-49
2021/12/05 17:50:12;;;;;;;14.65;6.85;;;5.60;99.90;;;;;;5012048;28;20032;-48
2021/12/05 17:52:38;;;;;;;13.43;7.07;;;5.60;99.90;;;;;;5012942;28;20034;-46
2021/12/05 17:55:15;;;;;;;11.07;6.40;;;5.60;99.90;;;;;;5011429;28;20026;-47
2021/12/05 17:57:46;;;;;;;15.85;5.60;;;5.60;99.90;;;;;;5011721;28;20037;-49
2021/12/05 18:03:11;;;;;;;12.65;6.55;;;5.40;99.90;;;;;;4992166;28;20038;-48
2021/12/05 18:05:42;;;;;;;11.15;6.30;;;5.40;99.90;;;;;;5012974;28;20018;-46
2021/12/05 18:08:14;;;;;;;13.85;7.22;;;5.30;99.90;;;;;;5021512;28;20038;-48
2021/12/05 18:10:47;;;;;;;15.73;8.13;;;5.30;99.90;;;;;;5017530;28;20113;-48
2021/12/05 18:13:13;;;;;;;12.25;6.60;;;5.20;99.90;;;;;;5017421;28;20018;-46
2021/12/05 18:15:46;;;;;;;12.27;6.93;;;5.10;99.90;;;;;;5020006;28;20025;-48
2021/12/05 18:18:15;;;;;;;11.57;6.07;;;5.10;99.90;;;;;;5021433;28;20026;-50
2021/12/05 18:20:41;;;;;;;11.38;6.70;;;5.10;99.90;;;;;;5011206;28;20025;-50